Airfield :
LOGIN :

Register | Disclaimer

   EN    FR    IT 

 










Legend :    VFR   Marginal VFR   IFR   Intensive IFR   Very Intensive IFR
Visi :
Ceiling :
>= 8 km
>= 3000ft
5 to 8 km
1000 to 3000 ft
1500m to 5 km
500 to 1000 ft
800 to 1500m
200 to 500 ft
< 800m
< 200 ft
Symbols :   Thunderstorms  Fog  Heavy snow  Heavy precipitations  Wind > 20 kt
SIGMETs :     Misc.  Thunderstorms  Icing  Turbulence  Mountain Waves  Volcanic Ashes







- Airport Elevation : 1302 ft
- IATA code : GNB
- Download approach charts


LFLS - Grenoble / St. Geoirs

CURRENT METAR :
  • 201530Z AUTO 33005KT 270V010 9999 FEW054 22/10 Q1014 TEMPO VRB15G25KT 3000 TSRA SCT040CB

EXPIRED METARs :
  • 201500Z AUTO 34006KT 300V030 9999 FEW054 BKN120 22/10 Q1014 TEMPO VRB15G25KT 3000 TSRA SCT040CB
  • 201430Z AUTO 34007KT 300V040 9999 SCT052 23/10 Q1014 TEMPO VRB15G25KT 3000 TSRA SCT040CB
  • 201400Z AUTO 34007KT 310V030 9999 FEW047 SCT120 23/09 Q1014 TEMPO VRB15G25KT 3000 TSRA SCT040CB
  • 201330Z AUTO 31005KT 260V360 9999 SCT048 SCT058 22/10 Q1015 TEMPO VRB15G25KT 3000 TSRA SCT040CB
  • 201300Z AUTO 31003KT 270V360 9999 BKN046 BKN054 BKN120 22/11 Q1015 TEMPO FEW035TCU FEW040CB

TAF TAF LFLS
Valid from the 20 at 15:00 until the 21 at 15:00 UTC


201400Z 2015/2115 VRB03KT 9999 FEW045TCU FEW060CB
PROB30
TEMPO 2016/2019 VRB15G25KT 3000 TSRA SCT040CB
BECMG 2016/2018 08006KT
BECMG 2110/2112 SCT060TCU
ATIS : +33 4 76 65 55 89
No reported NOTAMs for that airfield.
1 SIGMET reported for the Marseille FIR (LFMM) :
 
Embedded thunderstorms
LFMM SIGMET 3 VALID 201500/201600 LFPW
LFMM MARSEILLE FIR/UIR EMBD TS OBS WI N4400 E00530 - N4330 E00530 - N4345 E00430 - N4400 E00430 - N4400 E00530 TOP FL320 STNR NC=



MET'MAP, your aeronautical weather chart ! - Copyright ORBIFLY December 2007 - Disclaimer

ORBIFLY MET'MAP TEAM :

Programming & Development : Alexandra Zaïnal
Concept & Development : Baudouin d'Aumeries
Co-Development & Prog : Marc-Olivier Méhu
Technical & hardware support : Manuel Goepfert

Contact : metmap@orbifly.com




SOURCES & CREDITS :

   NOAA